sensor_id;sensor_type;location;lat;lon;timestamp;P1;durP1;ratioP1;P2;durP2;ratioP2
49193;SDS011;35029;50.804;12.866;2022-08-21T00:01:30;23.13;;;20.85;;
49193;SDS011;35029;50.804;12.866;2022-08-21T00:03:56;25.52;;;23.02;;
49193;SDS011;35029;50.804;12.866;2022-08-21T00:06:22;24.02;;;21.63;;
49193;SDS011;35029;50.804;12.866;2022-08-21T00:08:51;24.15;;;21.77;;
49193;SDS011;35029;50.804;12.866;2022-08-21T00:11:17;21.92;;;19.63;;
49193;SDS011;35029;50.804;12.866;2022-08-21T00:13:43;20.90;;;18.90;;
49193;SDS011;35029;50.804;12.866;2022-08-21T00:16:09;25.42;;;22.95;;
49193;SDS011;35029;50.804;12.866;2022-08-21T00:18:36;23.63;;;21.38;;
49193;SDS011;35029;50.804;12.866;2022-08-21T00:21:01;23.08;;;20.83;;
49193;SDS011;35029;50.804;12.866;2022-08-21T00:23:27;22.00;;;19.80;;
49193;SDS011;35029;50.804;12.866;2022-08-21T00:25:52;24.85;;;22.45;;
49193;SDS011;35029;50.804;12.866;2022-08-21T00:28:18;22.58;;;20.15;;
49193;SDS011;35029;50.804;12.866;2022-08-21T00:30:44;22.15;;;19.92;;
49193;SDS011;35029;50.804;12.866;2022-08-21T00:33:10;23.40;;;21.00;;
49193;SDS011;35029;50.804;12.866;2022-08-21T00:35:37;23.40;;;21.13;;
49193;SDS011;35029;50.804;12.866;2022-08-21T00:38:05;25.13;;;22.58;;
49193;SDS011;35029;50.804;12.866;2022-08-21T00:40:34;24.40;;;21.30;;
49193;SDS011;35029;50.804;12.866;2022-08-21T00:43:05;23.80;;;21.45;;
49193;SDS011;35029;50.804;12.866;2022-08-21T00:45:33;23.15;;;20.95;;
49193;SDS011;35029;50.804;12.866;2022-08-21T00:47:59;24.38;;;21.98;;
49193;SDS011;35029;50.804;12.866;2022-08-21T00:50:26;25.13;;;22.83;;
49193;SDS011;35029;50.804;12.866;2022-08-21T00:52:54;22.90;;;20.70;;
49193;SDS011;35029;50.804;12.866;2022-08-21T00:55:21;22.15;;;20.05;;
49193;SDS011;35029;50.804;12.866;2022-08-21T00:57:48;21.40;;;19.33;;
49193;SDS011;35029;50.804;12.866;2022-08-21T01:00:18;24.15;;;20.98;;
49193;SDS011;35029;50.804;12.866;2022-08-21T01:02:57;22.92;;;20.67;;
49193;SDS011;35029;50.804;12.866;2022-08-21T01:05:24;22.08;;;19.80;;
49193;SDS011;35029;50.804;12.866;2022-08-21T01:07:50;23.63;;;21.20;;
49193;SDS011;35029;50.804;12.866;2022-08-21T01:10:16;25.67;;;23.10;;
49193;SDS011;35029;50.804;12.866;2022-08-21T01:12:43;21.85;;;19.58;;
49193;SDS011;35029;50.804;12.866;2022-08-21T01:15:09;24.60;;;22.13;;
49193;SDS011;35029;50.804;12.866;2022-08-21T01:17:36;24.35;;;21.98;;
49193;SDS011;35029;50.804;12.866;2022-08-21T01:20:04;19.33;;;17.45;;
49193;SDS011;35029;50.804;12.866;2022-08-21T01:22:32;21.83;;;19.73;;
49193;SDS011;35029;50.804;12.866;2022-08-21T01:24:58;25.42;;;20.88;;
49193;SDS011;35029;50.804;12.866;2022-08-21T01:27:23;24.67;;;22.27;;
49193;SDS011;35029;50.804;12.866;2022-08-21T01:29:54;21.63;;;19.33;;
49193;SDS011;35029;50.804;12.866;2022-08-21T01:32:25;20.27;;;18.27;;
49193;SDS011;35029;50.804;12.866;2022-08-21T01:34:51;20.63;;;18.63;;
49193;SDS011;35029;50.804;12.866;2022-08-21T01:37:18;22.13;;;20.10;;
49193;SDS011;35029;50.804;12.866;2022-08-21T01:39:46;23.20;;;20.80;;
49193;SDS011;35029;50.804;12.866;2022-08-21T01:42:13;21.73;;;19.42;;
49193;SDS011;35029;50.804;12.866;2022-08-21T01:44:40;22.25;;;20.13;;
49193;SDS011;35029;50.804;12.866;2022-08-21T01:47:07;25.50;;;23.00;;
49193;SDS011;35029;50.804;12.866;2022-08-21T01:49:34;20.73;;;18.63;;
49193;SDS011;35029;50.804;12.866;2022-08-21T01:52:01;29.08;;;25.45;;
49193;SDS011;35029;50.804;12.866;2022-08-21T01:54:28;29.63;;;26.40;;
49193;SDS011;35029;50.804;12.866;2022-08-21T01:56:55;28.83;;;25.67;;
49193;SDS011;35029;50.804;12.866;2022-08-21T01:59:22;25.38;;;22.65;;
49193;SDS011;35029;50.804;12.866;2022-08-21T02:01:49;28.45;;;25.20;;
49193;SDS011;35029;50.804;12.866;2022-08-21T02:04:15;30.65;;;27.15;;
49193;SDS011;35029;50.804;12.866;2022-08-21T02:06:41;30.45;;;26.08;;
49193;SDS011;35029;50.804;12.866;2022-08-21T02:09:07;34.55;;;30.00;;
49193;SDS011;35029;50.804;12.866;2022-08-21T02:11:35;36.03;;;30.15;;
49193;SDS011;35029;50.804;12.866;2022-08-21T02:14:01;30.48;;;26.88;;
49193;SDS011;35029;50.804;12.866;2022-08-21T02:16:27;48.67;;;34.60;;
49193;SDS011;35029;50.804;12.866;2022-08-21T02:18:53;36.70;;;31.08;;
49193;SDS011;35029;50.804;12.866;2022-08-21T02:21:19;38.08;;;30.92;;
49193;SDS011;35029;50.804;12.866;2022-08-21T02:23:44;43.75;;;35.38;;
49193;SDS011;35029;50.804;12.866;2022-08-21T02:26:10;43.42;;;34.70;;
49193;SDS011;35029;50.804;12.866;2022-08-21T02:28:37;47.15;;;36.65;;
49193;SDS011;35029;50.804;12.866;2022-08-21T02:31:03;44.47;;;36.47;;
49193;SDS011;35029;50.804;12.866;2022-08-21T02:33:29;52.00;;;40.22;;
49193;SDS011;35029;50.804;12.866;2022-08-21T02:35:56;40.70;;;33.13;;
49193;SDS011;35029;50.804;12.866;2022-08-21T02:38:25;48.85;;;38.15;;
49193;SDS011;35029;50.804;12.866;2022-08-21T02:40:53;47.33;;;39.22;;
49193;SDS011;35029;50.804;12.866;2022-08-21T02:43:20;55.78;;;43.03;;
49193;SDS011;35029;50.804;12.866;2022-08-21T02:45:47;51.13;;;39.95;;
49193;SDS011;35029;50.804;12.866;2022-08-21T02:48:16;52.97;;;41.88;;
49193;SDS011;35029;50.804;12.866;2022-08-21T02:50:44;62.67;;;43.55;;
49193;SDS011;35029;50.804;12.866;2022-08-21T02:53:18;51.30;;;41.72;;
49193;SDS011;35029;50.804;12.866;2022-08-21T02:55:45;44.10;;;36.50;;
49193;SDS011;35029;50.804;12.866;2022-08-21T02:58:13;50.28;;;40.35;;
49193;SDS011;35029;50.804;12.866;2022-08-21T03:00:40;49.10;;;40.50;;
49193;SDS011;35029;50.804;12.866;2022-08-21T03:03:07;54.63;;;43.42;;
49193;SDS011;35029;50.804;12.866;2022-08-21T03:05:33;44.42;;;38.30;;
49193;SDS011;35029;50.804;12.866;2022-08-21T03:08:01;45.13;;;38.15;;
49193;SDS011;35029;50.804;12.866;2022-08-21T03:10:28;42.88;;;35.08;;
49193;SDS011;35029;50.804;12.866;2022-08-21T03:12:56;44.45;;;37.67;;
49193;SDS011;35029;50.804;12.866;2022-08-21T03:15:22;54.05;;;38.75;;
49193;SDS011;35029;50.804;12.866;2022-08-21T03:17:51;37.78;;;32.10;;
49193;SDS011;35029;50.804;12.866;2022-08-21T03:20:20;40.10;;;33.08;;
49193;SDS011;35029;50.804;12.866;2022-08-21T03:22:48;40.63;;;34.05;;
49193;SDS011;35029;50.804;12.866;2022-08-21T03:25:13;42.00;;;34.97;;
49193;SDS011;35029;50.804;12.866;2022-08-21T03:27:39;46.05;;;34.60;;
49193;SDS011;35029;50.804;12.866;2022-08-21T03:30:05;35.28;;;31.45;;
49193;SDS011;35029;50.804;12.866;2022-08-21T03:32:31;37.22;;;31.55;;
49193;SDS011;35029;50.804;12.866;2022-08-21T03:34:57;33.85;;;30.17;;
49193;SDS011;35029;50.804;12.866;2022-08-21T03:37:23;33.95;;;30.02;;
49193;SDS011;35029;50.804;12.866;2022-08-21T03:39:49;44.58;;;35.88;;
49193;SDS011;35029;50.804;12.866;2022-08-21T03:42:15;38.30;;;32.00;;
49193;SDS011;35029;50.804;12.866;2022-08-21T03:44:41;38.60;;;32.17;;
49193;SDS011;35029;50.804;12.866;2022-08-21T03:47:07;44.50;;;31.65;;
49193;SDS011;35029;50.804;12.866;2022-08-21T03:49:32;39.70;;;32.15;;
49193;SDS011;35029;50.804;12.866;2022-08-21T03:51:58;34.50;;;29.55;;
49193;SDS011;35029;50.804;12.866;2022-08-21T03:54:24;42.78;;;34.15;;
49193;SDS011;35029;50.804;12.866;2022-08-21T03:56:50;34.60;;;29.60;;
49193;SDS011;35029;50.804;12.866;2022-08-21T03:59:17;40.05;;;32.50;;
49193;SDS011;35029;50.804;12.866;2022-08-21T04:01:55;38.80;;;32.58;;
49193;SDS011;35029;50.804;12.866;2022-08-21T04:04:24;40.65;;;32.40;;
49193;SDS011;35029;50.804;12.866;2022-08-21T04:06:51;39.90;;;32.53;;
49193;SDS011;35029;50.804;12.866;2022-08-21T04:09:17;32.38;;;27.65;;
49193;SDS011;35029;50.804;12.866;2022-08-21T04:11:43;36.38;;;30.83;;
49193;SDS011;35029;50.804;12.866;2022-08-21T04:14:10;33.13;;;29.38;;
49193;SDS011;35029;50.804;12.866;2022-08-21T04:16:36;27.67;;;23.67;;
49193;SDS011;35029;50.804;12.866;2022-08-21T04:19:01;27.20;;;24.35;;
49193;SDS011;35029;50.804;12.866;2022-08-21T04:21:27;33.10;;;29.42;;
49193;SDS011;35029;50.804;12.866;2022-08-21T04:23:54;34.13;;;30.42;;
49193;SDS011;35029;50.804;12.866;2022-08-21T04:26:21;29.50;;;25.25;;
49193;SDS011;35029;50.804;12.866;2022-08-21T04:28:46;28.20;;;25.00;;
49193;SDS011;35029;50.804;12.866;2022-08-21T04:31:12;36.08;;;30.58;;
49193;SDS011;35029;50.804;12.866;2022-08-21T04:33:38;29.88;;;26.65;;
49193;SDS011;35029;50.804;12.866;2022-08-21T04:36:04;28.30;;;25.35;;
49193;SDS011;35029;50.804;12.866;2022-08-21T04:38:30;33.15;;;27.52;;
49193;SDS011;35029;50.804;12.866;2022-08-21T04:40:56;32.22;;;28.27;;
49193;SDS011;35029;50.804;12.866;2022-08-21T04:43:22;27.90;;;24.90;;
49193;SDS011;35029;50.804;12.866;2022-08-21T04:45:48;31.85;;;27.33;;
49193;SDS011;35029;50.804;12.866;2022-08-21T04:48:16;29.65;;;26.50;;
49193;SDS011;35029;50.804;12.866;2022-08-21T04:50:55;29.60;;;26.33;;
49193;SDS011;35029;50.804;12.866;2022-08-21T04:55:53;29.80;;;25.92;;
49193;SDS011;35029;50.804;12.866;2022-08-21T04:58:21;31.08;;;25.60;;
49193;SDS011;35029;50.804;12.866;2022-08-21T05:00:52;38.78;;;26.73;;
49193;SDS011;35029;50.804;12.866;2022-08-21T05:03:19;31.60;;;27.75;;
49193;SDS011;35029;50.804;12.866;2022-08-21T05:05:46;37.13;;;28.42;;
49193;SDS011;35029;50.804;12.866;2022-08-21T05:08:14;32.67;;;27.83;;
49193;SDS011;35029;50.804;12.866;2022-08-21T05:10:42;30.00;;;26.52;;
49193;SDS011;35029;50.804;12.866;2022-08-21T05:13:09;27.75;;;24.90;;
49193;SDS011;35029;50.804;12.866;2022-08-21T05:15:37;25.80;;;21.77;;
49193;SDS011;35029;50.804;12.866;2022-08-21T05:18:03;31.88;;;26.77;;
49193;SDS011;35029;50.804;12.866;2022-08-21T05:20:31;36.65;;;31.50;;
49193;SDS011;35029;50.804;12.866;2022-08-21T05:22:59;29.40;;;26.10;;
49193;SDS011;35029;50.804;12.866;2022-08-21T05:25:25;27.73;;;24.75;;
49193;SDS011;35029;50.804;12.866;2022-08-21T05:27:52;33.40;;;29.02;;
49193;SDS011;35029;50.804;12.866;2022-08-21T05:30:19;28.63;;;25.60;;
49193;SDS011;35029;50.804;12.866;2022-08-21T05:32:45;31.63;;;27.00;;
49193;SDS011;35029;50.804;12.866;2022-08-21T05:35:12;34.67;;;28.75;;
49193;SDS011;35029;50.804;12.866;2022-08-21T05:37:38;27.90;;;24.77;;
49193;SDS011;35029;50.804;12.866;2022-08-21T05:40:05;26.40;;;23.63;;
49193;SDS011;35029;50.804;12.866;2022-08-21T05:42:32;27.55;;;24.58;;
49193;SDS011;35029;50.804;12.866;2022-08-21T05:44:57;26.52;;;23.77;;
49193;SDS011;35029;50.804;12.866;2022-08-21T05:47:23;31.58;;;28.25;;
49193;SDS011;35029;50.804;12.866;2022-08-21T05:49:48;31.40;;;26.63;;
49193;SDS011;35029;50.804;12.866;2022-08-21T05:52:18;32.03;;;28.35;;
49193;SDS011;35029;50.804;12.866;2022-08-21T05:54:44;25.88;;;23.08;;
49193;SDS011;35029;50.804;12.866;2022-08-21T05:57:10;27.88;;;24.90;;
49193;SDS011;35029;50.804;12.866;2022-08-21T05:59:35;26.67;;;23.73;;
49193;SDS011;35029;50.804;12.866;2022-08-21T06:02:02;24.27;;;21.67;;
49193;SDS011;35029;50.804;12.866;2022-08-21T06:04:27;25.48;;;22.85;;
49193;SDS011;35029;50.804;12.866;2022-08-21T06:06:52;25.33;;;22.67;;
49193;SDS011;35029;50.804;12.866;2022-08-21T06:09:18;34.53;;;28.58;;
49193;SDS011;35029;50.804;12.866;2022-08-21T06:11:44;30.77;;;26.67;;
49193;SDS011;35029;50.804;12.866;2022-08-21T06:14:09;27.33;;;22.98;;
49193;SDS011;35029;50.804;12.866;2022-08-21T06:16:35;27.23;;;24.38;;
49193;SDS011;35029;50.804;12.866;2022-08-21T06:19:00;22.40;;;20.02;;
49193;SDS011;35029;50.804;12.866;2022-08-21T06:21:26;25.08;;;22.55;;
49193;SDS011;35029;50.804;12.866;2022-08-21T06:23:52;27.15;;;24.25;;
49193;SDS011;35029;50.804;12.866;2022-08-21T06:26:17;25.30;;;22.67;;
49193;SDS011;35029;50.804;12.866;2022-08-21T06:28:43;25.13;;;22.50;;
49193;SDS011;35029;50.804;12.866;2022-08-21T06:31:16;25.60;;;22.75;;
49193;SDS011;35029;50.804;12.866;2022-08-21T06:33:44;27.98;;;24.25;;
49193;SDS011;35029;50.804;12.866;2022-08-21T06:36:10;23.30;;;20.80;;
49193;SDS011;35029;50.804;12.866;2022-08-21T06:38:36;26.58;;;23.40;;
49193;SDS011;35029;50.804;12.866;2022-08-21T06:41:03;24.92;;;21.58;;
49193;SDS011;35029;50.804;12.866;2022-08-21T06:43:29;21.45;;;19.33;;
49193;SDS011;35029;50.804;12.866;2022-08-21T06:45:55;20.58;;;18.48;;
49193;SDS011;35029;50.804;12.866;2022-08-21T06:48:21;23.10;;;19.63;;
49193;SDS011;35029;50.804;12.866;2022-08-21T06:50:47;18.27;;;16.48;;
49193;SDS011;35029;50.804;12.866;2022-08-21T06:53:14;18.02;;;16.13;;
49193;SDS011;35029;50.804;12.866;2022-08-21T06:55:41;19.58;;;17.38;;
49193;SDS011;35029;50.804;12.866;2022-08-21T06:58:07;20.88;;;18.75;;
49193;SDS011;35029;50.804;12.866;2022-08-21T07:00:34;22.23;;;18.45;;
49193;SDS011;35029;50.804;12.866;2022-08-21T07:03:04;21.23;;;18.05;;
49193;SDS011;35029;50.804;12.866;2022-08-21T07:05:29;18.98;;;16.63;;
49193;SDS011;35029;50.804;12.866;2022-08-21T07:07:55;21.88;;;18.17;;
49193;SDS011;35029;50.804;12.866;2022-08-21T07:10:22;21.52;;;19.30;;
49193;SDS011;35029;50.804;12.866;2022-08-21T07:12:49;19.30;;;16.45;;
49193;SDS011;35029;50.804;12.866;2022-08-21T07:15:15;22.70;;;19.60;;
49193;SDS011;35029;50.804;12.866;2022-08-21T07:17:41;20.70;;;18.17;;
49193;SDS011;35029;50.804;12.866;2022-08-21T07:20:06;15.98;;;13.32;;
49193;SDS011;35029;50.804;12.866;2022-08-21T07:22:32;19.23;;;17.20;;
49193;SDS011;35029;50.804;12.866;2022-08-21T07:25:00;21.75;;;19.35;;
49193;SDS011;35029;50.804;12.866;2022-08-21T07:27:26;20.48;;;18.33;;
49193;SDS011;35029;50.804;12.866;2022-08-21T07:29:52;23.02;;;19.45;;
49193;SDS011;35029;50.804;12.866;2022-08-21T07:32:17;18.48;;;16.48;;
49193;SDS011;35029;50.804;12.866;2022-08-21T07:34:43;22.92;;;20.35;;
49193;SDS011;35029;50.804;12.866;2022-08-21T07:37:09;20.98;;;18.88;;
49193;SDS011;35029;50.804;12.866;2022-08-21T07:39:35;21.75;;;18.67;;
49193;SDS011;35029;50.804;12.866;2022-08-21T07:42:01;22.52;;;19.90;;
49193;SDS011;35029;50.804;12.866;2022-08-21T07:44:28;21.50;;;19.27;;
49193;SDS011;35029;50.804;12.866;2022-08-21T07:46:54;26.23;;;21.70;;
49193;SDS011;35029;50.804;12.866;2022-08-21T07:49:19;21.15;;;19.02;;
49193;SDS011;35029;50.804;12.866;2022-08-21T07:51:45;21.00;;;18.58;;
49193;SDS011;35029;50.804;12.866;2022-08-21T07:54:10;24.35;;;21.80;;
49193;SDS011;35029;50.804;12.866;2022-08-21T07:56:36;24.27;;;20.50;;
49193;SDS011;35029;50.804;12.866;2022-08-21T07:59:01;19.98;;;17.83;;
49193;SDS011;35029;50.804;12.866;2022-08-21T08:01:28;20.58;;;17.20;;
49193;SDS011;35029;50.804;12.866;2022-08-21T08:03:54;21.02;;;17.20;;
49193;SDS011;35029;50.804;12.866;2022-08-21T08:06:20;20.33;;;18.17;;
49193;SDS011;35029;50.804;12.866;2022-08-21T08:08:46;18.63;;;16.73;;
49193;SDS011;35029;50.804;12.866;2022-08-21T08:11:12;20.83;;;18.65;;
49193;SDS011;35029;50.804;12.866;2022-08-21T08:13:47;18.15;;;16.27;;
49193;SDS011;35029;50.804;12.866;2022-08-21T08:16:14;18.60;;;15.82;;
49193;SDS011;35029;50.804;12.866;2022-08-21T08:18:41;16.50;;;14.90;;
49193;SDS011;35029;50.804;12.866;2022-08-21T08:21:07;20.30;;;17.58;;
49193;SDS011;35029;50.804;12.866;2022-08-21T08:23:33;18.10;;;16.08;;
49193;SDS011;35029;50.804;12.866;2022-08-21T08:25:59;18.67;;;16.33;;
49193;SDS011;35029;50.804;12.866;2022-08-21T08:28:27;17.65;;;16.00;;
49193;SDS011;35029;50.804;12.866;2022-08-21T08:30:53;18.20;;;15.70;;
49193;SDS011;35029;50.804;12.866;2022-08-21T08:33:19;18.35;;;15.48;;
49193;SDS011;35029;50.804;12.866;2022-08-21T08:35:45;13.98;;;12.55;;
49193;SDS011;35029;50.804;12.866;2022-08-21T08:38:13;15.55;;;13.95;;
49193;SDS011;35029;50.804;12.866;2022-08-21T08:43:12;16.45;;;14.80;;
49193;SDS011;35029;50.804;12.866;2022-08-21T08:45:39;19.75;;;14.18;;
49193;SDS011;35029;50.804;12.866;2022-08-21T08:48:10;16.85;;;13.50;;
49193;SDS011;35029;50.804;12.866;2022-08-21T08:50:55;13.63;;;12.38;;
49193;SDS011;35029;50.804;12.866;2022-08-21T08:55:55;13.75;;;12.45;;
49193;SDS011;35029;50.804;12.866;2022-08-21T08:58:24;12.68;;;11.45;;
49193;SDS011;35029;50.804;12.866;2022-08-21T09:00:55;13.30;;;11.02;;
49193;SDS011;35029;50.804;12.866;2022-08-21T09:03:25;11.60;;;10.40;;
49193;SDS011;35029;50.804;12.866;2022-08-21T09:11:37;10.55;;;9.48;;
49193;SDS011;35029;50.804;12.866;2022-08-21T09:14:26;13.98;;;9.07;;
49193;SDS011;35029;50.804;12.866;2022-08-21T09:22:23;7.45;;;6.75;;
49193;SDS011;35029;50.804;12.866;2022-08-21T09:25:20;10.10;;;7.65;;
49193;SDS011;35029;50.804;12.866;2022-08-21T09:27:49;10.25;;;8.02;;
49193;SDS011;35029;50.804;12.866;2022-08-21T09:30:15;9.45;;;7.40;;
49193;SDS011;35029;50.804;12.866;2022-08-21T09:32:42;8.23;;;7.13;;
49193;SDS011;35029;50.804;12.866;2022-08-21T09:38:11;9.38;;;6.22;;
49193;SDS011;35029;50.804;12.866;2022-08-21T09:43:22;7.13;;;5.05;;
49193;SDS011;35029;50.804;12.866;2022-08-21T09:46:00;7.47;;;6.15;;
49193;SDS011;35029;50.804;12.866;2022-08-21T09:48:47;8.73;;;6.78;;
49193;SDS011;35029;50.804;12.866;2022-08-21T09:51:17;5.90;;;4.88;;
49193;SDS011;35029;50.804;12.866;2022-08-21T09:53:55;6.30;;;4.80;;
49193;SDS011;35029;50.804;12.866;2022-08-21T09:56:29;8.03;;;5.03;;
49193;SDS011;35029;50.804;12.866;2022-08-21T10:01:46;7.57;;;3.90;;
49193;SDS011;35029;50.804;12.866;2022-08-21T10:04:15;8.88;;;3.70;;
49193;SDS011;35029;50.804;12.866;2022-08-21T10:06:45;4.38;;;3.45;;
49193;SDS011;35029;50.804;12.866;2022-08-21T10:09:12;6.53;;;3.95;;
49193;SDS011;35029;50.804;12.866;2022-08-21T10:11:42;7.20;;;3.33;;
49193;SDS011;35029;50.804;12.866;2022-08-21T10:19:54;6.30;;;3.20;;
49193;SDS011;35029;50.804;12.866;2022-08-21T10:30:11;6.50;;;2.90;;
49193;SDS011;35029;50.804;12.866;2022-08-21T10:35:33;10.25;;;3.17;;
49193;SDS011;35029;50.804;12.866;2022-08-21T10:38:34;9.70;;;3.83;;
49193;SDS011;35029;50.804;12.866;2022-08-21T10:41:21;8.43;;;2.47;;
49193;SDS011;35029;50.804;12.866;2022-08-21T10:44:16;5.90;;;2.70;;
49193;SDS011;35029;50.804;12.866;2022-08-21T10:55:18;4.60;;;2.88;;
49193;SDS011;35029;50.804;12.866;2022-08-21T11:00:39;5.00;;;2.75;;
49193;SDS011;35029;50.804;12.866;2022-08-21T11:06:21;4.15;;;2.13;;
49193;SDS011;35029;50.804;12.866;2022-08-21T11:08:37;7.10;;;3.10;;
49193;SDS011;35029;50.804;12.866;2022-08-21T11:13:51;8.07;;;2.60;;
49193;SDS011;35029;50.804;12.866;2022-08-21T11:21:44;6.72;;;3.20;;
49193;SDS011;35029;50.804;12.866;2022-08-21T11:27:26;6.88;;;3.00;;
49193;SDS011;35029;50.804;12.866;2022-08-21T11:29:38;7.40;;;2.97;;
49193;SDS011;35029;50.804;12.866;2022-08-21T11:35:00;10.30;;;2.70;;
49193;SDS011;35029;50.804;12.866;2022-08-21T11:45:33;7.00;;;2.97;;
49193;SDS011;35029;50.804;12.866;2022-08-21T11:51:20;4.55;;;2.20;;
49193;SDS011;35029;50.804;12.866;2022-08-21T11:54:03;5.43;;;2.75;;
49193;SDS011;35029;50.804;12.866;2022-08-21T11:56:54;4.95;;;3.00;;
49193;SDS011;35029;50.804;12.866;2022-08-21T12:02:10;7.43;;;2.30;;
49193;SDS011;35029;50.804;12.866;2022-08-21T12:04:47;8.18;;;2.80;;
49193;SDS011;35029;50.804;12.866;2022-08-21T12:10:10;6.18;;;2.30;;
49193;SDS011;35029;50.804;12.866;2022-08-21T12:12:39;9.02;;;2.63;;
49193;SDS011;35029;50.804;12.866;2022-08-21T12:17:38;4.30;;;2.45;;
49193;SDS011;35029;50.804;12.866;2022-08-21T12:25:40;3.55;;;2.20;;
49193;SDS011;35029;50.804;12.866;2022-08-21T12:28:09;6.53;;;2.45;;
49193;SDS011;35029;50.804;12.866;2022-08-21T12:30:40;5.63;;;1.90;;
49193;SDS011;35029;50.804;12.866;2022-08-21T12:33:22;5.28;;;2.33;;
49193;SDS011;35029;50.804;12.866;2022-08-21T12:36:02;8.30;;;2.88;;
49193;SDS011;35029;50.804;12.866;2022-08-21T12:38:41;6.95;;;2.53;;
49193;SDS011;35029;50.804;12.866;2022-08-21T12:41:31;4.65;;;2.85;;
49193;SDS011;35029;50.804;12.866;2022-08-21T12:44:09;8.80;;;2.15;;
49193;SDS011;35029;50.804;12.866;2022-08-21T12:46:42;6.43;;;2.05;;
49193;SDS011;35029;50.804;12.866;2022-08-21T12:49:13;3.65;;;2.10;;
49193;SDS011;35029;50.804;12.866;2022-08-21T12:51:55;10.13;;;3.20;;
49193;SDS011;35029;50.804;12.866;2022-08-21T12:54:27;7.75;;;2.35;;
49193;SDS011;35029;50.804;12.866;2022-08-21T12:57:00;9.93;;;2.88;;
49193;SDS011;35029;50.804;12.866;2022-08-21T12:59:29;4.35;;;2.17;;
49193;SDS011;35029;50.804;12.866;2022-08-21T13:01:56;11.27;;;2.50;;
49193;SDS011;35029;50.804;12.866;2022-08-21T13:04:36;8.88;;;2.55;;
49193;SDS011;35029;50.804;12.866;2022-08-21T13:07:06;5.90;;;3.00;;
49193;SDS011;35029;50.804;12.866;2022-08-21T13:12:06;3.70;;;2.05;;
49193;SDS011;35029;50.804;12.866;2022-08-21T13:14:38;5.00;;;2.50;;
49193;SDS011;35029;50.804;12.866;2022-08-21T13:17:06;3.15;;;2.28;;
49193;SDS011;35029;50.804;12.866;2022-08-21T13:19:33;3.85;;;2.35;;
49193;SDS011;35029;50.804;12.866;2022-08-21T13:22:00;4.13;;;2.63;;
49193;SDS011;35029;50.804;12.866;2022-08-21T13:24:28;4.20;;;2.58;;
49193;SDS011;35029;50.804;12.866;2022-08-21T13:26:55;5.68;;;2.25;;
49193;SDS011;35029;50.804;12.866;2022-08-21T13:29:23;3.80;;;2.40;;
49193;SDS011;35029;50.804;12.866;2022-08-21T13:32:03;6.75;;;2.45;;
49193;SDS011;35029;50.804;12.866;2022-08-21T13:34:36;6.47;;;2.90;;
49193;SDS011;35029;50.804;12.866;2022-08-21T13:39:32;5.20;;;3.22;;
49193;SDS011;35029;50.804;12.866;2022-08-21T13:41:59;8.90;;;3.65;;
49193;SDS011;35029;50.804;12.866;2022-08-21T13:44:42;3.10;;;2.55;;
49193;SDS011;35029;50.804;12.866;2022-08-21T13:47:10;6.57;;;2.80;;
49193;SDS011;35029;50.804;12.866;2022-08-21T13:49:40;7.35;;;2.70;;
49193;SDS011;35029;50.804;12.866;2022-08-21T13:52:19;7.72;;;2.28;;
49193;SDS011;35029;50.804;12.866;2022-08-21T13:54:58;4.30;;;2.90;;
49193;SDS011;35029;50.804;12.866;2022-08-21T13:57:32;6.15;;;2.80;;
49193;SDS011;35029;50.804;12.866;2022-08-21T14:00:19;5.20;;;2.83;;
49193;SDS011;35029;50.804;12.866;2022-08-21T14:02:51;4.30;;;2.58;;
49193;SDS011;35029;50.804;12.866;2022-08-21T14:05:20;4.97;;;2.40;;
49193;SDS011;35029;50.804;12.866;2022-08-21T14:07:50;6.30;;;3.15;;
49193;SDS011;35029;50.804;12.866;2022-08-21T14:10:22;4.28;;;2.80;;
49193;SDS011;35029;50.804;12.866;2022-08-21T14:12:52;6.40;;;3.45;;
49193;SDS011;35029;50.804;12.866;2022-08-21T14:15:23;8.77;;;3.75;;
49193;SDS011;35029;50.804;12.866;2022-08-21T14:17:53;9.00;;;3.10;;
49193;SDS011;35029;50.804;12.866;2022-08-21T14:20:57;5.45;;;2.55;;
49193;SDS011;35029;50.804;12.866;2022-08-21T14:23:11;5.40;;;2.53;;
49193;SDS011;35029;50.804;12.866;2022-08-21T14:25:48;3.42;;;2.22;;
49193;SDS011;35029;50.804;12.866;2022-08-21T14:30:58;4.80;;;2.90;;
49193;SDS011;35029;50.804;12.866;2022-08-21T14:33:37;4.63;;;2.67;;
49193;SDS011;35029;50.804;12.866;2022-08-21T14:36:02;5.28;;;2.65;;
49193;SDS011;35029;50.804;12.866;2022-08-21T14:38:28;6.88;;;2.95;;
49193;SDS011;35029;50.804;12.866;2022-08-21T14:40:55;4.97;;;2.60;;
49193;SDS011;35029;50.804;12.866;2022-08-21T14:43:24;9.40;;;3.50;;
49193;SDS011;35029;50.804;12.866;2022-08-21T14:45:51;5.18;;;2.97;;
49193;SDS011;35029;50.804;12.866;2022-08-21T14:48:17;5.32;;;3.13;;
49193;SDS011;35029;50.804;12.866;2022-08-21T14:50:42;8.73;;;2.90;;
49193;SDS011;35029;50.804;12.866;2022-08-21T14:53:08;4.43;;;2.92;;
49193;SDS011;35029;50.804;12.866;2022-08-21T14:55:34;5.25;;;2.67;;
49193;SDS011;35029;50.804;12.866;2022-08-21T14:58:18;4.07;;;2.70;;
49193;SDS011;35029;50.804;12.866;2022-08-21T15:00:45;4.72;;;2.95;;
49193;SDS011;35029;50.804;12.866;2022-08-21T15:03:10;6.88;;;3.08;;
49193;SDS011;35029;50.804;12.866;2022-08-21T15:05:36;5.18;;;3.00;;
49193;SDS011;35029;50.804;12.866;2022-08-21T15:08:01;6.47;;;3.15;;
49193;SDS011;35029;50.804;12.866;2022-08-21T15:10:27;4.68;;;2.67;;
49193;SDS011;35029;50.804;12.866;2022-08-21T15:12:54;5.22;;;2.72;;
49193;SDS011;35029;50.804;12.866;2022-08-21T15:15:20;6.00;;;2.95;;
49193;SDS011;35029;50.804;12.866;2022-08-21T15:17:46;6.63;;;2.85;;
49193;SDS011;35029;50.804;12.866;2022-08-21T15:20:11;5.30;;;3.55;;
49193;SDS011;35029;50.804;12.866;2022-08-21T15:22:37;4.18;;;2.95;;
49193;SDS011;35029;50.804;12.866;2022-08-21T15:25:02;4.63;;;2.88;;
49193;SDS011;35029;50.804;12.866;2022-08-21T15:27:28;7.47;;;3.13;;
49193;SDS011;35029;50.804;12.866;2022-08-21T15:29:54;5.28;;;3.10;;
49193;SDS011;35029;50.804;12.866;2022-08-21T15:32:21;5.53;;;3.05;;
49193;SDS011;35029;50.804;12.866;2022-08-21T15:34:49;3.20;;;2.50;;
49193;SDS011;35029;50.804;12.866;2022-08-21T15:37:16;7.63;;;3.05;;
49193;SDS011;35029;50.804;12.866;2022-08-21T15:39:42;6.30;;;2.83;;
49193;SDS011;35029;50.804;12.866;2022-08-21T15:42:08;5.85;;;3.05;;
49193;SDS011;35029;50.804;12.866;2022-08-21T15:44:36;6.75;;;3.15;;
49193;SDS011;35029;50.804;12.866;2022-08-21T15:47:03;5.50;;;2.70;;
49193;SDS011;35029;50.804;12.866;2022-08-21T15:49:30;3.97;;;2.60;;
49193;SDS011;35029;50.804;12.866;2022-08-21T15:51:55;4.05;;;2.60;;
49193;SDS011;35029;50.804;12.866;2022-08-21T15:54:21;5.78;;;3.00;;
49193;SDS011;35029;50.804;12.866;2022-08-21T15:56:47;6.78;;;3.08;;
49193;SDS011;35029;50.804;12.866;2022-08-21T15:59:17;3.60;;;2.47;;
49193;SDS011;35029;50.804;12.866;2022-08-21T16:01:47;5.97;;;2.75;;
49193;SDS011;35029;50.804;12.866;2022-08-21T16:04:24;8.13;;;2.35;;
49193;SDS011;35029;50.804;12.866;2022-08-21T16:06:52;4.63;;;2.33;;
49193;SDS011;35029;50.804;12.866;2022-08-21T16:09:18;5.88;;;2.80;;
49193;SDS011;35029;50.804;12.866;2022-08-21T16:11:44;5.53;;;2.45;;